sensor_id;sensor_type;location;lat;lon;timestamp;pressure;altitude;pressure_sealevel;temperature;humidity
50292;BME280;36190;54.980;73.388;2022-07-23T00:00:50;99128.84;;;17.31;56.84
50292;BME280;36190;54.980;73.388;2022-07-23T00:03:18;99130.81;;;17.36;56.68
50292;BME280;36190;54.980;73.388;2022-07-23T00:05:47;99120.88;;;17.36;56.88
50292;BME280;36190;54.980;73.388;2022-07-23T00:08:14;99130.91;;;17.41;56.75
50292;BME280;36190;54.980;73.388;2022-07-23T00:10:41;99120.78;;;17.48;56.86
50292;BME280;36190;54.980;73.388;2022-07-23T00:13:09;99118.41;;;17.52;56.85
50292;BME280;36190;54.980;73.388;2022-07-23T00:15:37;99116.53;;;17.52;56.91
50292;BME280;36190;54.980;73.388;2022-07-23T00:18:05;99109.03;;;17.54;56.47
50292;BME280;36190;54.980;73.388;2022-07-23T00:20:32;99117.59;;;17.51;56.70
50292;BME280;36190;54.980;73.388;2022-07-23T00:23:01;99128.53;;;17.44;56.58
50292;BME280;36190;54.980;73.388;2022-07-23T00:25:28;99111.47;;;17.39;56.78
50292;BME280;36190;54.980;73.388;2022-07-23T00:27:56;99114.97;;;17.39;56.81
50292;BME280;36190;54.980;73.388;2022-07-23T00:30:24;99120.22;;;17.46;56.83
50292;BME280;36190;54.980;73.388;2022-07-23T00:32:53;99115.41;;;17.48;56.78
50292;BME280;36190;54.980;73.388;2022-07-23T00:35:23;99122.00;;;17.57;56.76
50292;BME280;36190;54.980;73.388;2022-07-23T00:37:51;99141.13;;;17.56;56.78
50292;BME280;36190;54.980;73.388;2022-07-23T00:40:19;99137.94;;;17.42;57.23
50292;BME280;36190;54.980;73.388;2022-07-23T00:42:47;99142.75;;;17.40;57.34
50292;BME280;36190;54.980;73.388;2022-07-23T00:45:14;99139.97;;;17.35;57.77
50292;BME280;36190;54.980;73.388;2022-07-23T00:47:42;99137.22;;;17.29;58.43
50292;BME280;36190;54.980;73.388;2022-07-23T00:50:10;99136.72;;;17.32;58.53
50292;BME280;36190;54.980;73.388;2022-07-23T00:52:38;99131.81;;;17.29;58.73
50292;BME280;36190;54.980;73.388;2022-07-23T00:55:07;99125.25;;;17.25;59.13
50292;BME280;36190;54.980;73.388;2022-07-23T00:57:37;99117.69;;;17.22;59.50
50292;BME280;36190;54.980;73.388;2022-07-23T01:00:07;99127.47;;;17.28;60.86
50292;BME280;36190;54.980;73.388;2022-07-23T01:02:36;99117.94;;;17.38;60.72
50292;BME280;36190;54.980;73.388;2022-07-23T01:05:05;99113.66;;;17.42;60.69
50292;BME280;36190;54.980;73.388;2022-07-23T01:07:33;99115.16;;;17.50;60.64
50292;BME280;36190;54.980;73.388;2022-07-23T01:10:00;99115.78;;;17.57;61.06
50292;BME280;36190;54.980;73.388;2022-07-23T01:12:28;99117.25;;;17.65;61.10
50292;BME280;36190;54.980;73.388;2022-07-23T01:14:58;99113.91;;;17.75;61.15
50292;BME280;36190;54.980;73.388;2022-07-23T01:17:26;99113.81;;;17.86;60.87
50292;BME280;36190;54.980;73.388;2022-07-23T01:19:54;99122.09;;;18.02;60.36
50292;BME280;36190;54.980;73.388;2022-07-23T01:22:22;99118.00;;;18.17;59.71
50292;BME280;36190;54.980;73.388;2022-07-23T01:24:52;99110.09;;;18.32;59.45
50292;BME280;36190;54.980;73.388;2022-07-23T01:27:19;99113.19;;;18.41;59.24
50292;BME280;36190;54.980;73.388;2022-07-23T01:29:47;99104.91;;;18.48;59.10
50292;BME280;36190;54.980;73.388;2022-07-23T01:32:14;99103.06;;;18.53;58.56
50292;BME280;36190;54.980;73.388;2022-07-23T01:34:41;99105.06;;;18.63;58.38
50292;BME280;36190;54.980;73.388;2022-07-23T01:37:09;99104.38;;;18.73;58.14
50292;BME280;36190;54.980;73.388;2022-07-23T01:39:36;99102.00;;;18.82;57.99
50292;BME280;36190;54.980;73.388;2022-07-23T01:42:05;99099.69;;;18.91;57.69
50292;BME280;36190;54.980;73.388;2022-07-23T01:44:33;99112.97;;;18.97;57.39
50292;BME280;36190;54.980;73.388;2022-07-23T01:47:00;99113.53;;;19.00;57.22
50292;BME280;36190;54.980;73.388;2022-07-23T01:49:27;99116.50;;;18.98;57.39
50292;BME280;36190;54.980;73.388;2022-07-23T01:51:55;99114.34;;;19.00;57.69
50292;BME280;36190;54.980;73.388;2022-07-23T01:54:29;99119.47;;;18.96;57.36
50292;BME280;36190;54.980;73.388;2022-07-23T01:56:57;99122.09;;;18.91;57.11
50292;BME280;36190;54.980;73.388;2022-07-23T01:59:27;99120.75;;;18.89;56.97
50292;BME280;36190;54.980;73.388;2022-07-23T02:01:55;99113.38;;;18.84;56.90
50292;BME280;36190;54.980;73.388;2022-07-23T02:04:24;99112.19;;;18.75;56.80
50292;BME280;36190;54.980;73.388;2022-07-23T02:06:52;99121.13;;;18.75;57.02
50292;BME280;36190;54.980;73.388;2022-07-23T02:09:19;99125.16;;;18.73;57.37
50292;BME280;36190;54.980;73.388;2022-07-23T02:11:47;99125.06;;;18.62;57.49
50292;BME280;36190;54.980;73.388;2022-07-23T02:14:14;99126.81;;;18.51;57.72
50292;BME280;36190;54.980;73.388;2022-07-23T02:16:43;99122.41;;;18.45;58.14
50292;BME280;36190;54.980;73.388;2022-07-23T02:19:10;99122.97;;;18.47;58.17
50292;BME280;36190;54.980;73.388;2022-07-23T02:21:38;99125.75;;;18.52;58.16
50292;BME280;36190;54.980;73.388;2022-07-23T02:24:05;99130.06;;;18.53;58.13
50292;BME280;36190;54.980;73.388;2022-07-23T02:26:33;99118.47;;;18.53;58.36
50292;BME280;36190;54.980;73.388;2022-07-23T02:29:01;99127.00;;;18.67;58.29
50292;BME280;36190;54.980;73.388;2022-07-23T02:31:28;99123.84;;;18.75;58.00
50292;BME280;36190;54.980;73.388;2022-07-23T02:33:57;99117.16;;;18.83;57.77
50292;BME280;36190;54.980;73.388;2022-07-23T02:36:25;99123.94;;;18.86;57.28
50292;BME280;36190;54.980;73.388;2022-07-23T02:38:52;99118.53;;;18.86;57.06
50292;BME280;36190;54.980;73.388;2022-07-23T02:41:20;99111.50;;;18.85;57.05
50292;BME280;36190;54.980;73.388;2022-07-23T02:43:47;99121.03;;;18.92;57.07
50292;BME280;36190;54.980;73.388;2022-07-23T02:46:14;99132.00;;;19.03;56.68
50292;BME280;36190;54.980;73.388;2022-07-23T02:48:42;99133.94;;;19.13;56.75
50292;BME280;36190;54.980;73.388;2022-07-23T02:51:11;99117.06;;;19.28;56.72
50292;BME280;36190;54.980;73.388;2022-07-23T02:53:38;99116.13;;;19.44;56.47
50292;BME280;36190;54.980;73.388;2022-07-23T02:56:05;99117.13;;;19.71;56.05
50292;BME280;36190;54.980;73.388;2022-07-23T02:58:33;99124.00;;;19.89;55.75
50292;BME280;36190;54.980;73.388;2022-07-23T03:01:00;99122.97;;;19.95;55.62
50292;BME280;36190;54.980;73.388;2022-07-23T03:03:27;99124.13;;;20.04;55.41
50292;BME280;36190;54.980;73.388;2022-07-23T03:05:55;99129.56;;;20.10;55.18
50292;BME280;36190;54.980;73.388;2022-07-23T03:08:24;99121.41;;;20.04;55.32
50292;BME280;36190;54.980;73.388;2022-07-23T03:10:51;99125.44;;;19.97;55.47
50292;BME280;36190;54.980;73.388;2022-07-23T03:13:18;99131.16;;;20.05;55.71
50292;BME280;36190;54.980;73.388;2022-07-23T03:15:46;99135.28;;;20.18;55.37
50292;BME280;36190;54.980;73.388;2022-07-23T03:18:13;99133.97;;;20.26;55.17
50292;BME280;36190;54.980;73.388;2022-07-23T03:20:40;99130.19;;;20.27;55.31
50292;BME280;36190;54.980;73.388;2022-07-23T03:23:08;99133.22;;;20.36;55.37
50292;BME280;36190;54.980;73.388;2022-07-23T03:25:37;99125.38;;;20.40;55.29
50292;BME280;36190;54.980;73.388;2022-07-23T03:28:04;99129.75;;;20.51;55.21
50292;BME280;36190;54.980;73.388;2022-07-23T03:30:32;99138.38;;;20.43;55.35
50292;BME280;36190;54.980;73.388;2022-07-23T03:32:59;99133.50;;;20.40;55.70
50292;BME280;36190;54.980;73.388;2022-07-23T03:35:26;99129.72;;;20.41;55.89
50292;BME280;36190;54.980;73.388;2022-07-23T03:37:54;99127.59;;;20.64;55.63
50292;BME280;36190;54.980;73.388;2022-07-23T03:40:21;99125.53;;;20.86;54.91
50292;BME280;36190;54.980;73.388;2022-07-23T03:42:50;99123.94;;;20.96;54.81
50292;BME280;36190;54.980;73.388;2022-07-23T03:45:17;99128.28;;;21.02;54.73
50292;BME280;36190;54.980;73.388;2022-07-23T03:47:45;99131.28;;;21.11;54.66
50292;BME280;36190;54.980;73.388;2022-07-23T03:50:12;99130.47;;;21.21;54.75
50292;BME280;36190;54.980;73.388;2022-07-23T03:52:40;99136.19;;;21.29;54.65
50292;BME280;36190;54.980;73.388;2022-07-23T03:55:07;99124.50;;;21.29;54.32
50292;BME280;36190;54.980;73.388;2022-07-23T03:57:35;99121.00;;;21.28;54.29
50292;BME280;36190;54.980;73.388;2022-07-23T04:00:05;99113.94;;;21.38;54.34
50292;BME280;36190;54.980;73.388;2022-07-23T04:02:34;99118.56;;;21.48;54.25
50292;BME280;36190;54.980;73.388;2022-07-23T04:05:02;99117.44;;;21.43;54.37
50292;BME280;36190;54.980;73.388;2022-07-23T04:07:30;99126.94;;;21.46;54.11
50292;BME280;36190;54.980;73.388;2022-07-23T04:09:58;99124.78;;;21.48;54.15
50292;BME280;36190;54.980;73.388;2022-07-23T04:12:26;99118.53;;;21.42;54.37
50292;BME280;36190;54.980;73.388;2022-07-23T04:14:53;99120.16;;;21.43;54.59
50292;BME280;36190;54.980;73.388;2022-07-23T04:17:22;99120.72;;;21.51;54.44
50292;BME280;36190;54.980;73.388;2022-07-23T04:19:49;99124.53;;;21.70;54.37
50292;BME280;36190;54.980;73.388;2022-07-23T04:22:17;99124.75;;;21.90;53.93
50292;BME280;36190;54.980;73.388;2022-07-23T04:24:44;99119.84;;;21.97;53.81
50292;BME280;36190;54.980;73.388;2022-07-23T04:27:11;99115.78;;;22.00;53.90
50292;BME280;36190;54.980;73.388;2022-07-23T04:29:39;99111.41;;;22.09;53.86
50292;BME280;36190;54.980;73.388;2022-07-23T04:32:06;99113.00;;;22.20;53.86
50292;BME280;36190;54.980;73.388;2022-07-23T04:34:35;99107.53;;;22.31;53.62
50292;BME280;36190;54.980;73.388;2022-07-23T04:37:02;99114.53;;;22.42;53.55
50292;BME280;36190;54.980;73.388;2022-07-23T04:39:30;99103.13;;;22.45;53.74
50292;BME280;36190;54.980;73.388;2022-07-23T04:41:57;99095.50;;;22.42;53.55
50292;BME280;36190;54.980;73.388;2022-07-23T04:44:24;99101.50;;;22.39;53.56
50292;BME280;36190;54.980;73.388;2022-07-23T04:46:52;99103.19;;;22.30;53.59
50292;BME280;36190;54.980;73.388;2022-07-23T04:49:19;99099.47;;;22.05;54.16
50292;BME280;36190;54.980;73.388;2022-07-23T04:51:48;99098.91;;;22.03;54.48
50292;BME280;36190;54.980;73.388;2022-07-23T04:54:15;99106.19;;;22.23;54.12
50292;BME280;36190;54.980;73.388;2022-07-23T04:56:43;99092.00;;;22.42;53.67
50292;BME280;36190;54.980;73.388;2022-07-23T04:59:10;99089.44;;;22.66;53.43
50292;BME280;36190;54.980;73.388;2022-07-23T05:01:38;99094.03;;;22.71;52.99
50292;BME280;36190;54.980;73.388;2022-07-23T05:04:06;99100.66;;;22.54;53.39
50292;BME280;36190;54.980;73.388;2022-07-23T05:06:33;99097.72;;;22.35;53.67
50292;BME280;36190;54.980;73.388;2022-07-23T05:09:02;99093.44;;;22.18;53.96
50292;BME280;36190;54.980;73.388;2022-07-23T05:11:30;99091.28;;;22.10;53.97
50292;BME280;36190;54.980;73.388;2022-07-23T05:13:57;99096.16;;;22.18;53.88
50292;BME280;36190;54.980;73.388;2022-07-23T05:16:25;99086.38;;;22.22;53.75
50292;BME280;36190;54.980;73.388;2022-07-23T05:18:52;99087.41;;;22.37;53.80
50292;BME280;36190;54.980;73.388;2022-07-23T05:21:19;99087.84;;;22.60;53.35
50292;BME280;36190;54.980;73.388;2022-07-23T05:23:47;99080.25;;;22.62;53.50
50292;BME280;36190;54.980;73.388;2022-07-23T05:26:16;99081.28;;;22.66;53.38
50292;BME280;36190;54.980;73.388;2022-07-23T05:28:43;99092.09;;;22.76;53.30
50292;BME280;36190;54.980;73.388;2022-07-23T05:31:10;99097.19;;;22.88;53.21
50292;BME280;36190;54.980;73.388;2022-07-23T05:33:38;99086.19;;;23.04;53.15
50292;BME280;36190;54.980;73.388;2022-07-23T05:36:06;99093.47;;;23.14;52.71
50292;BME280;36190;54.980;73.388;2022-07-23T05:38:33;99088.25;;;23.23;52.76
50292;BME280;36190;54.980;73.388;2022-07-23T05:41:01;99095.00;;;23.25;52.32
50292;BME280;36190;54.980;73.388;2022-07-23T05:43:30;99086.84;;;23.25;52.30
50292;BME280;36190;54.980;73.388;2022-07-23T05:45:57;99092.38;;;23.15;52.49
50292;BME280;36190;54.980;73.388;2022-07-23T05:48:25;99089.22;;;23.02;52.61
50292;BME280;36190;54.980;73.388;2022-07-23T05:50:52;99079.78;;;22.89;53.12
50292;BME280;36190;54.980;73.388;2022-07-23T05:53:19;99086.53;;;22.97;52.61
50292;BME280;36190;54.980;73.388;2022-07-23T05:55:47;99091.34;;;23.11;52.68
50292;BME280;36190;54.980;73.388;2022-07-23T05:58:14;99081.91;;;23.32;52.24
50292;BME280;36190;54.980;73.388;2022-07-23T06:00:43;99075.56;;;23.42;52.35
50292;BME280;36190;54.980;73.388;2022-07-23T06:03:10;99079.41;;;23.41;52.30
50292;BME280;36190;54.980;73.388;2022-07-23T06:05:38;99073.44;;;23.39;52.02
50292;BME280;36190;54.980;73.388;2022-07-23T06:08:05;99071.66;;;23.54;52.07
50292;BME280;36190;54.980;73.388;2022-07-23T06:10:33;99080.00;;;23.87;51.41
50292;BME280;36190;54.980;73.388;2022-07-23T06:13:00;99081.78;;;24.02;50.83
50292;BME280;36190;54.980;73.388;2022-07-23T06:15:28;99082.84;;;24.06;50.99
50292;BME280;36190;54.980;73.388;2022-07-23T06:17:57;99079.00;;;24.07;50.88
50292;BME280;36190;54.980;73.388;2022-07-23T06:20:25;99078.91;;;24.17;50.99
50292;BME280;36190;54.980;73.388;2022-07-23T06:22:52;99076.31;;;24.26;50.59
50292;BME280;36190;54.980;73.388;2022-07-23T06:25:19;99086.28;;;24.36;49.88
50292;BME280;36190;54.980;73.388;2022-07-23T06:27:47;99071.56;;;24.37;49.81
50292;BME280;36190;54.980;73.388;2022-07-23T06:30:15;99079.22;;;24.35;50.12
50292;BME280;36190;54.980;73.388;2022-07-23T06:32:43;99075.22;;;24.27;50.38
50292;BME280;36190;54.980;73.388;2022-07-23T06:35:12;99067.88;;;24.28;50.40
50292;BME280;36190;54.980;73.388;2022-07-23T06:37:39;99068.78;;;24.42;50.38
50292;BME280;36190;54.980;73.388;2022-07-23T06:40:07;99067.00;;;24.52;49.93
50292;BME280;36190;54.980;73.388;2022-07-23T06:42:35;99060.50;;;24.48;49.95
50292;BME280;36190;54.980;73.388;2022-07-23T06:45:05;99069.94;;;24.36;49.90
50292;BME280;36190;54.980;73.388;2022-07-23T06:47:33;99054.84;;;24.25;50.14
50292;BME280;36190;54.980;73.388;2022-07-23T06:50:00;99062.56;;;24.17;50.09
50292;BME280;36190;54.980;73.388;2022-07-23T06:52:29;99051.31;;;24.00;49.78
50292;BME280;36190;54.980;73.388;2022-07-23T06:54:57;99046.31;;;24.07;49.70
50292;BME280;36190;54.980;73.388;2022-07-23T06:57:24;99055.47;;;24.16;49.41
50292;BME280;36190;54.980;73.388;2022-07-23T06:59:52;99043.31;;;24.09;49.11
50292;BME280;36190;54.980;73.388;2022-07-23T07:02:20;99048.75;;;24.09;49.07
50292;BME280;36190;54.980;73.388;2022-07-23T07:04:47;99032.78;;;23.97;48.86
50292;BME280;36190;54.980;73.388;2022-07-23T07:07:14;99021.97;;;23.92;48.97
50292;BME280;36190;54.980;73.388;2022-07-23T07:09:43;99033.31;;;23.99;48.31
50292;BME280;36190;54.980;73.388;2022-07-23T07:12:10;99018.97;;;24.17;48.04
50292;BME280;36190;54.980;73.388;2022-07-23T07:14:38;99042.47;;;24.33;47.31
50292;BME280;36190;54.980;73.388;2022-07-23T07:17:05;99017.94;;;24.52;47.08
50292;BME280;36190;54.980;73.388;2022-07-23T07:19:33;99016.16;;;24.80;46.55
50292;BME280;36190;54.980;73.388;2022-07-23T07:22:00;99024.41;;;24.94;44.54
50292;BME280;36190;54.980;73.388;2022-07-23T07:24:28;99017.75;;;25.01;42.73
50292;BME280;36190;54.980;73.388;2022-07-23T07:26:56;99007.38;;;25.17;42.31
50292;BME280;36190;54.980;73.388;2022-07-23T07:29:24;99006.09;;;25.28;42.27
50292;BME280;36190;54.980;73.388;2022-07-23T07:31:51;99009.03;;;25.32;42.48
50292;BME280;36190;54.980;73.388;2022-07-23T07:34:18;99010.38;;;25.34;43.25
50292;BME280;36190;54.980;73.388;2022-07-23T07:36:46;99004.16;;;25.29;43.70
50292;BME280;36190;54.980;73.388;2022-07-23T07:39:13;98994.16;;;25.38;43.11
50292;BME280;36190;54.980;73.388;2022-07-23T07:41:40;98997.09;;;25.41;42.64
50292;BME280;36190;54.980;73.388;2022-07-23T07:44:09;99000.97;;;25.54;42.63
50292;BME280;36190;54.980;73.388;2022-07-23T07:46:36;98984.50;;;25.74;42.27
50292;BME280;36190;54.980;73.388;2022-07-23T07:49:04;98981.16;;;25.91;42.16
50292;BME280;36190;54.980;73.388;2022-07-23T07:51:31;98978.00;;;25.98;42.90
50292;BME280;36190;54.980;73.388;2022-07-23T07:53:59;98979.41;;;26.09;42.96
50292;BME280;36190;54.980;73.388;2022-07-23T07:56:27;98978.84;;;26.35;42.49
50292;BME280;36190;54.980;73.388;2022-07-23T07:58:54;98979.94;;;26.71;41.81
50292;BME280;36190;54.980;73.388;2022-07-23T08:01:23;98971.22;;;26.91;41.63
50292;BME280;36190;54.980;73.388;2022-07-23T08:03:50;98984.78;;;26.74;42.15
50292;BME280;36190;54.980;73.388;2022-07-23T08:06:18;98977.78;;;26.22;42.69
50292;BME280;36190;54.980;73.388;2022-07-23T08:08:45;98972.38;;;25.66;43.87
50292;BME280;36190;54.980;73.388;2022-07-23T08:11:12;98968.50;;;25.39;44.65
50292;BME280;36190;54.980;73.388;2022-07-23T08:13:40;98970.78;;;25.18;45.07
50292;BME280;36190;54.980;73.388;2022-07-23T08:16:09;98968.84;;;24.90;45.21
50292;BME280;36190;54.980;73.388;2022-07-23T08:18:38;98971.78;;;24.75;45.71
50292;BME280;36190;54.980;73.388;2022-07-23T08:21:06;98957.28;;;24.79;46.02
50292;BME280;36190;54.980;73.388;2022-07-23T08:23:33;98961.72;;;24.89;45.60
50292;BME280;36190;54.980;73.388;2022-07-23T08:26:01;98962.78;;;25.07;45.79
50292;BME280;36190;54.980;73.388;2022-07-23T08:28:28;98959.00;;;25.50;45.20
50292;BME280;36190;54.980;73.388;2022-07-23T08:30:58;98946.38;;;26.19;44.26
50292;BME280;36190;54.980;73.388;2022-07-23T08:33:26;98952.59;;;26.94;43.71
50292;BME280;36190;54.980;73.388;2022-07-23T08:35:55;98955.81;;;27.59;43.19
50292;BME280;36190;54.980;73.388;2022-07-23T08:38:22;98952.69;;;28.27;41.72
50292;BME280;36190;54.980;73.388;2022-07-23T08:40:53;98952.91;;;29.05;40.36
50292;BME280;36190;54.980;73.388;2022-07-23T08:43:21;98950.63;;;29.55;39.38
50292;BME280;36190;54.980;73.388;2022-07-23T08:45:50;98957.84;;;29.69;38.15
50292;BME280;36190;54.980;73.388;2022-07-23T08:48:19;98950.22;;;29.35;38.57
50292;BME280;36190;54.980;73.388;2022-07-23T08:50:48;98952.97;;;28.79;39.24
50292;BME280;36190;54.980;73.388;2022-07-23T08:53:18;98960.72;;;28.15;39.88
50292;BME280;36190;54.980;73.388;2022-07-23T08:55:46;98950.47;;;27.63;41.42
50292;BME280;36190;54.980;73.388;2022-07-23T08:58:14;98951.50;;;27.35;42.07
50292;BME280;36190;54.980;73.388;2022-07-23T09:00:42;98947.28;;;27.29;42.39
50292;BME280;36190;54.980;73.388;2022-07-23T09:03:15;98943.97;;;27.09;43.06
50292;BME280;36190;54.980;73.388;2022-07-23T09:05:43;98935.19;;;26.89;43.11
50292;BME280;36190;54.980;73.388;2022-07-23T09:08:13;98933.81;;;26.78;43.68
50292;BME280;36190;54.980;73.388;2022-07-23T09:10:46;98934.97;;;27.09;43.08
50292;BME280;36190;54.980;73.388;2022-07-23T09:13:29;98940.66;;;27.70;41.88
50292;BME280;36190;54.980;73.388;2022-07-23T09:15:58;98940.13;;;28.26;40.94
50292;BME280;36190;54.980;73.388;2022-07-23T09:18:39;98917.06;;;29.10;39.66
50292;BME280;36190;54.980;73.388;2022-07-23T09:21:12;98932.34;;;29.89;38.93
50292;BME280;36190;54.980;73.388;2022-07-23T09:23:41;98928.34;;;30.08;37.91
50292;BME280;36190;54.980;73.388;2022-07-23T09:26:32;98930.50;;;30.36;37.14
50292;BME280;36190;54.980;73.388;2022-07-23T09:29:07;98929.88;;;30.18;36.61
50292;BME280;36190;54.980;73.388;2022-07-23T09:31:44;98938.56;;;29.47;37.37
50292;BME280;36190;54.980;73.388;2022-07-23T09:34:15;98955.41;;;28.63;39.22
50292;BME280;36190;54.980;73.388;2022-07-23T09:36:43;98986.13;;;27.71;41.46
50292;BME280;36190;54.980;73.388;2022-07-23T09:39:12;98995.94;;;26.41;45.70
50292;BME280;36190;54.980;73.388;2022-07-23T09:41:43;98955.91;;;24.96;49.55
50292;BME280;36190;54.980;73.388;2022-07-23T09:44:13;98956.81;;;24.20;50.56
50292;BME280;36190;54.980;73.388;2022-07-23T09:46:42;98972.25;;;24.05;51.23
50292;BME280;36190;54.980;73.388;2022-07-23T09:49:21;98958.78;;;24.33;51.12
50292;BME280;36190;54.980;73.388;2022-07-23T09:51:51;98951.00;;;24.59;51.15
50292;BME280;36190;54.980;73.388;2022-07-23T09:54:28;98924.91;;;24.72;51.73
50292;BME280;36190;54.980;73.388;2022-07-23T09:57:00;98932.28;;;25.19;51.62
50292;BME280;36190;54.980;73.388;2022-07-23T09:59:30;98945.00;;;25.94;50.04
50292;BME280;36190;54.980;73.388;2022-07-23T10:01:59;98946.59;;;26.91;48.51
50292;BME280;36190;54.980;73.388;2022-07-23T10:04:28;98950.31;;;27.59;46.79
50292;BME280;36190;54.980;73.388;2022-07-23T10:06:58;98948.91;;;27.79;46.54
50292;BME280;36190;54.980;73.388;2022-07-23T10:09:28;98956.03;;;28.16;46.00
50292;BME280;36190;54.980;73.388;2022-07-23T10:12:02;98953.16;;;28.56;45.09
50292;BME280;36190;54.980;73.388;2022-07-23T10:14:44;98947.72;;;29.13;44.01
50292;BME280;36190;54.980;73.388;2022-07-23T10:17:12;98948.44;;;29.70;42.50
50292;BME280;36190;54.980;73.388;2022-07-23T10:19:39;98942.03;;;30.72;40.29
50292;BME280;36190;54.980;73.388;2022-07-23T10:22:09;98945.50;;;31.52;39.16
50292;BME280;36190;54.980;73.388;2022-07-23T10:24:50;98947.84;;;32.32;37.83
50292;BME280;36190;54.980;73.388;2022-07-23T10:27:47;98949.78;;;32.73;37.56
50292;BME280;36190;54.980;73.388;2022-07-23T10:30:21;98948.16;;;32.72;36.27
50292;BME280;36190;54.980;73.388;2022-07-23T10:33:15;98941.25;;;32.78;36.25
50292;BME280;36190;54.980;73.388;2022-07-23T10:35:52;98942.53;;;32.97;35.62
50292;BME280;36190;54.980;73.388;2022-07-23T10:38:25;98946.63;;;33.35;34.68
50292;BME280;36190;54.980;73.388;2022-07-23T10:40:56;98951.72;;;33.65;34.48
50292;BME280;36190;54.980;73.388;2022-07-23T10:43:26;98957.59;;;33.99;33.42
50292;BME280;36190;54.980;73.388;2022-07-23T10:46:20;98945.38;;;34.20;32.56
50292;BME280;36190;54.980;73.388;2022-07-23T10:48:44;98954.63;;;33.72;32.60
50292;BME280;36190;54.980;73.388;2022-07-23T10:51:12;98959.41;;;32.79;33.44
50292;BME280;36190;54.980;73.388;2022-07-23T10:53:57;98959.63;;;32.17;34.03
50292;BME280;36190;54.980;73.388;2022-07-23T10:56:50;98945.59;;;31.56;34.39
50292;BME280;36190;54.980;73.388;2022-07-23T10:59:19;98943.13;;;31.05;35.08
50292;BME280;36190;54.980;73.388;2022-07-23T11:01:46;98938.63;;;30.54;35.16
50292;BME280;36190;54.980;73.388;2022-07-23T11:04:13;98936.03;;;30.36;35.38
50292;BME280;36190;54.980;73.388;2022-07-23T11:07:08;98940.31;;;30.46;35.34
50292;BME280;36190;54.980;73.388;2022-07-23T11:09:42;98932.84;;;29.83;35.16
50292;BME280;36190;54.980;73.388;2022-07-23T11:12:42;98938.28;;;28.84;36.36
50292;BME280;36190;54.980;73.388;2022-07-23T11:15:12;98948.59;;;27.72;38.01
50292;BME280;36190;54.980;73.388;2022-07-23T11:17:59;98945.63;;;26.64;39.52
50292;BME280;36190;54.980;73.388;2022-07-23T11:20:27;98971.34;;;25.62;41.14
50292;BME280;36190;54.980;73.388;2022-07-23T11:22:55;98966.84;;;24.77;42.67
50292;BME280;36190;54.980;73.388;2022-07-23T11:25:35;98969.31;;;24.21;44.25
50292;BME280;36190;54.980;73.388;2022-07-23T11:28:14;99005.19;;;23.84;45.23
50292;BME280;36190;54.980;73.388;2022-07-23T11:30:45;99001.41;;;23.80;46.08
50292;BME280;36190;54.980;73.388;2022-07-23T11:33:19;98949.34;;;24.06;46.97
50292;BME280;36190;54.980;73.388;2022-07-23T11:35:47;98951.88;;;25.21;45.65
50292;BME280;36190;54.980;73.388;2022-07-23T11:38:17;98964.75;;;26.87;42.94
50292;BME280;36190;54.980;73.388;2022-07-23T11:40:47;98967.19;;;28.19;40.52
50292;BME280;36190;54.980;73.388;2022-07-23T11:43:15;98971.72;;;28.59;38.72
50292;BME280;36190;54.980;73.388;2022-07-23T11:45:45;98963.00;;;28.84;37.84
50292;BME280;36190;54.980;73.388;2022-07-23T11:48:17;98962.28;;;29.04;36.30
50292;BME280;36190;54.980;73.388;2022-07-23T11:50:45;98960.06;;;28.98;35.85
50292;BME280;36190;54.980;73.388;2022-07-23T11:53:13;98954.22;;;29.47;35.34
50292;BME280;36190;54.980;73.388;2022-07-23T11:55:40;98958.75;;;30.03;33.62
50292;BME280;36190;54.980;73.388;2022-07-23T11:58:08;98960.84;;;30.49;32.83
50292;BME280;36190;54.980;73.388;2022-07-23T12:00:35;98959.84;;;30.87;32.49
50292;BME280;36190;54.980;73.388;2022-07-23T12:03:09;98964.72;;;31.15;31.46
50292;BME280;36190;54.980;73.388;2022-07-23T12:05:37;98962.47;;;31.42;31.08
50292;BME280;36190;54.980;73.388;2022-07-23T12:08:06;98956.38;;;31.74;30.88
50292;BME280;36190;54.980;73.388;2022-07-23T12:10:35;98954.72;;;32.10;30.03
50292;BME280;36190;54.980;73.388;2022-07-23T12:13:05;98953.25;;;32.70;29.25
50292;BME280;36190;54.980;73.388;2022-07-23T12:15:35;98967.31;;;33.41;28.41
50292;BME280;36190;54.980;73.388;2022-07-23T12:18:06;98958.59;;;33.91;27.82
50292;BME280;36190;54.980;73.388;2022-07-23T12:20:37;98962.22;;;34.31;27.20
50292;BME280;36190;54.980;73.388;2022-07-23T12:23:07;98954.78;;;34.35;26.66
50292;BME280;36190;54.980;73.388;2022-07-23T12:25:36;98960.16;;;34.48;26.65
50292;BME280;36190;54.980;73.388;2022-07-23T12:28:06;98951.34;;;34.81;26.07
50292;BME280;36190;54.980;73.388;2022-07-23T12:30:37;98961.47;;;34.74;25.49
50292;BME280;36190;54.980;73.388;2022-07-23T12:33:06;98964.16;;;34.50;25.53
50292;BME280;36190;54.980;73.388;2022-07-23T12:35:37;98964.28;;;34.54;25.49
50292;BME280;36190;54.980;73.388;2022-07-23T12:38:08;98963.88;;;34.75;24.93
50292;BME280;36190;54.980;73.388;2022-07-23T12:40:37;98956.31;;;34.72;24.85
50292;BME280;36190;54.980;73.388;2022-07-23T12:43:10;98965.34;;;34.69;24.99
50292;BME280;36190;54.980;73.388;2022-07-23T12:45:45;98975.72;;;35.19;24.47
50292;BME280;36190;54.980;73.388;2022-07-23T12:48:22;98981.63;;;35.41;24.35
50292;BME280;36190;54.980;73.388;2022-07-23T12:50:53;98979.03;;;34.81;24.63
50292;BME280;36190;54.980;73.388;2022-07-23T12:53:22;98974.88;;;34.32;25.09
50292;BME280;36190;54.980;73.388;2022-07-23T12:55:51;98970.13;;;34.13;25.42
50292;BME280;36190;54.980;73.388;2022-07-23T12:58:24;98971.16;;;34.05;25.62
50292;BME280;36190;54.980;73.388;2022-07-23T13:00:57;98976.78;;;34.48;25.46